Aviation Digital Data Service (ADDS)

Output produced by METARs form (0344 UTC 23 November 2017)
found at http://www.aviationweather.gov/adds/metars/
 
TAF SBAT 222200Z 2300/2312 30005KT 9999 FEW015 TN20/2308Z TX27/2312Z 
     BECMG 2308/2310 36005KT 
     PROB30 2310/2312 5000 BR RMK PEH
       
TAF SBAN 222000Z 2300/2312 29005KT 8000 NSC TX21/2300Z TN17/2308Z 
     PROB30 2300/2302 31010KT 4000 TSRA SCT015 FEW040CBB 
     BECMG 2301/2302 01004KT 7000 SCT015 
     PROB40 2309/2310 BKN010 
     PROB30 2309/2311 0800 FG BKN008 RMK PDA
       
TAF SBAR 230300Z 2306/2318 08008KT 9999 SCT017 TN24/2307Z TX29/2314Z 
     BECMG 2311/2313 09012KT RMK PEU
       
TAF SBBG 230100Z 2306/2406 01012KT CAVOK TN12/2308Z TX28/2318Z 
     BECMG 2315/2317 34012KT 
     BECMG 2321/2323 36009KT RMK PEB
       
TAF SBBW 222000Z 2300/2312 34003KT 8000 SCT015 FEW025TCU TN23/2307Z TX25/2311Z 
     PROB30 2300/2304 30008KT 2000 TSRA BKN010 FEW030CB 
     PROB30 2310/2312 BKN010 RMK PDA
       
TAF SBBU 222130Z 2300/2312 18005KT CAVOK TX25/2300Z TN17/2308Z 
     BECMG 2301/2303 12009KT RMK PDV
       
TAF SBBE 222200Z 2300/2324 05008KT CAVOK TN24/2305Z TX31/2316Z 
     BECMG 2311/2313 08010KT SCT025 
     BECMG 2315/2317 36010KT SCT035 FEW040TCU 
     PROB30 
     TEMPO 2318/2320 3000 SHRA 
     BECMG 2321/2323 05008KT FEW030 RMK PEH
       
TAF SBCF 222000Z 2300/2324 01005KT 8000 BKN015 TN19/2309Z TX23/2317Z 
     PROB30 2300/2304 4000 TSRA BKN006 FEW030CB 
     BECMG 2307/2308 BKN010 
     PROB30 2309/2311 0800 FG BKN005 
     BECMG 2313/231 5 35003KT 8000 SCT012 FEW030TCU 
     PROB30 
     TEMPO 2315/2319 4000 TSRA BKN015 FEW035CB 
     BECMG 2319/2322 2100 3KT 8000 NSC RMK PDA
       
TAF SBBV 222200Z 2300/2324 12005KT CAVOK TN26/2310Z TX35/2317Z BECNG 2310/2312 09010KT 
     BECMG 2315/2317 12010KT SCT040 FEW045TCU 
     BECMG 2321/2323 090 05KT FEW040 RMK PEH
       
TAF SBLP 222230Z 2300/2312 15006KT 9999 SCT020 TX30/2300Z TN26/2308Z RMK PEU
       
TAF SBBR 222000Z 2300/2324 32005KT 8000 NSC TN19/2309Z TX26/2317Z PRO B30 2300/2304 30015KT 4000 TSRA SCT015 FEW040CB 
     BECMG 2301/2303 27003KT SCT015 
     PROB40 2309/2311 BKN010 
     BECMG 2314/231 6 34007KT 8000 BKN020 FEW035TCU 
     PROB30 
     TEMPO 2318/2321 4000 TSRA FEW035CB RMK PDA
       
TAF SBCB 230200Z 2306/2406 21012KT 7000 BKN015 BKN025 TN21/2308Z TX25 /2317Z 
     PROB40 2306/2312 4000 DZ BR BKN010 
     BECMG 2314/2316 15010KT SCT017 BKN030 
     BECMG 2320/2322 10005KT 9999 SCT020 RMK PGU
       
TAF SBKG 222230Z 2300/2312 09009KT 9999 SCT015 TN21/2307Z TX25/2311Z 
     BECMG 2301/2303 BKN010 RMK PEU
       
TAF SBKP 230100Z 2306/2406 14012KT CAVOK TN17/2309Z TX27/2317Z 
     BECMG 2313/2315 12010KT FEW035 
     BECMG 2317/2319 17010KT SCT030 
     BECMG 2323/2401 12015KT CAVOK RMK PHG
       
TAF SBCG 230100Z 2306/2406 12010KT CAVOK TN19/2308Z TX31/2318Z 
     BECMG 2312/2314 14008KT 9999 SCT030 
     BECMG 2316/2318 17009KT SCT030 FEW035TCU 
     BECMG 2 321/2323 10009KT CAVOK RMK PEB
       
TAF SBCP 222000Z 2300/2312 21012KT 7000 SCT015 BKN025 TN21/2308Z TX24/2311Z 
     PROB40 
     TEMPO 2306/2310 3000 DZ BR BKN010 RMK PGX
       
TAF SBCR 230100Z 2306/2406 28003KT 9999 SCT030 TN22/2308Z TX34/2318Z 
     PROB30 
     TEMPO 2306/2310 5000 BR BKN008 
     BECMG 2310/2312 12007KT FEW030 
     BECMG 2316/2318 SCT030 
     BECMG 2321/2323 10005KT CAVOK RMK PEB
       
TAF SBCZ 222200Z 2300/2324 00000KT 9999 SCT030 FEW035TCU TN21/2309Z T X31/2318Z 
     PROB30 2300/2303 TS SCT030 FEW035CB 
     PROB30 2310/2312 3000 BR BKN005 
     BECMG 2312/2314 36005KT SCT015 
     BECMG 2315/2317 33005KT SCT030 
     PROB30 2319/ 2321 TS SCT030 FEW035CB 
     BECMG 2321/2323 00000KT RMK PEH
       
TAF SBCY 222200Z 2300/2324 36005KT 9999 FEW020 TN23/2309Z TX36/2317Z 
     BECMG 2305/2307 33005KT 
     BECMG 2310/2312 30005KT 
     BECMG 2315/2317 33008KT SC T025 FEW030TCU 
     PROB30 2318/2321 TS SCT020 FEW025CB 
     BECMG 2321/2323 36005K T FEW020 RMK PEH
       
TAF SBCT 230100Z 2306/2406 12011KT 9999 OVC009 TN11/2308Z TX23/2318Z 
     PROB40 2306/2308 8000 BKN004 OVC006 
     BECMG 2311/2313 08006KT BKN015 
     BECMG 23 14/2316 SCT030 
     BECMG 2321/2323 SCT009 RMK PEB
       
TAF SBBI 222130Z 2300/2312 09008KT 9999 OVC008 TX16/2300Z TN12/2308Z 
     PROB40 2300/2308 8000 RADZ BKN004 BKN006 RMK PDV
       
TAF SBFN 230300Z 2306/2318 12013KT 9999 SCT020 TN26/2308Z TX31/2314Z RMK PEU
       
TAF SBFL 230100Z 2306/2406 27010KT 9999 SCT035 BKN050 TN15/2308Z TX24 /2318Z 
     BECMG 2310/2312 36008KT CAVOK 
     BECMG 2314/2316 05016KT 9999 SCT025 RM K PEB
       
TAF SBFZ 230300Z 2306/2406 09011KT 9999 SCT020 TN26/2308Z TX31/2314Z 
     BECMG 2308/2310 09015KT BKN020 
     BECMG 2312/2314 08016KT SCT020 
     BECMG 2322/2 324 08011KT RMK PEU
       
TAF SBFI 230100Z 2306/2406 22003KT 9999 FEW030 TN15/2308Z TX31/2318Z 
     BECMG 2310/2312 11007KT 
     BECMG 2316/2318 05005KT 
     BECMG 2321/2323 14006KT RM K PEB
       
TAF SBGO 222000Z 2300/2324 34003KT 8000 NSC TN20/2307Z TX28/2317Z PRO B30 2300/2304 31012KT 4000 TSRA SCT012 FEW030CB 
     BECMG 2301/2302 02005KT SCT012 
     PROB40 2309/2311 BKN010 
     BECMG 2314/231 6 BKN020 FEW035TCU 
     PROB30 
     TEMPO 2318/2322 5000 TSRA FEW035CB RMK PDA
       
TAF SBGW 222000Z 2300/2312 16010KT 8000 BKN020 TN17/2308Z TX21/2311Z 
     PROB40 2308/2312 4000 BR BKN008 RMK PGX
       
TAF SBIL 222230Z 2300/2312 04006KT 9000 SCT020 TN23/2308Z TX27/2311Z 
     BECMG 2305/2306 27005KT RMK PEU
       
TAF SBIZ 222200Z 2300/2312 36003KT 9999 FEW015 TN25/2307Z TX29/2312Z 
     BECMG 2309/2311 07005KT RMK PEH
       
TAF SBIH 222200Z 2300/2312 00000KT 6000 NSC TN24/2306Z TX28/2312Z RMK PEH